EW9444 Weather Reports


Display with metric or nautical units.
time (UTC)temp
F
wind
direction
speed
MPH
gust
MPH
rain 1hr
in
rain 24hr
in
rain mn
in
humidity
%
barometer
mb
20181211130116 13 343 1.0 3.0 0.00 0.00 0.00 90 1020.3
20181211124733 12 97 1.0 3.0 0.00 0.00 0.00 89 1020.3
20181211123110 12 96 1.0 2.0 0.00 0.00 0.00 89 1020.3
20181211121733 12 96 0.0 2.0 0.00 0.00 0.00 89 1020.4
20181211120143 13 98 0.0 2.0 0.00 0.00 0.00 90 1020.4
20181211114807 13 343 0.0 2.0 0.00 0.00 0.00 91 1020.6
20181211113144 13 343 0.0 0.0 0.00 0.00 0.00 91 1020.6
20181211111737 13 343 0.0 0.0 0.00 0.00 0.00 90 1020.5
20181211110129 13 343 0.0 2.0 0.00 0.00 0.00 90 1020.5
20181211104651 13 343 1.0 2.0 0.00 0.00 0.00 90 1020.5
20181211103210 13 343 0.0 2.0 0.00 0.00 0.00 90 1020.4
20181211101636 13 343 0.0 1.0 0.00 0.00 0.00 90 1020.5
20181211100057 14 343 0.0 2.0 0.00 0.00 0.00 90 1020.5
20181211094608 14 343 0.0 3.0 0.00 0.00 0.00 91 1020.5
20181211093114 14 343 0.0 0.0 0.00 0.00 0.00 91 1020.5
20181211091551 14 343 0.0 0.0 0.00 0.00 0.00 91 1020.6
20181211090130 14 343 0.0 0.0 0.00 0.00 0.00 91 1020.7
20181211084701 14 343 0.0 0.0 0.00 0.00 0.00 90 1020.8
20181211083059 14 343 0.0 1.0 0.00 0.00 0.00 91 1020.8
20181211081553 14 343 0.0 0.0 0.00 0.00 0.00 90 1021.0
20181211080041 15 343 0.0 0.0 0.00 0.00 0.00 90 1021.3
20181211074642 15 343 0.0 0.0 0.00 0.00 0.00 89 1021.5
20181211073100 15 343 0.0 2.0 0.00 0.00 0.00 89 1021.7
20181211071522 15 343 0.0 0.0 0.00 0.00 0.00 89 1021.4
20181211070102 15 343 1.0 2.0 0.00 0.00 0.00 89 1021.3
20181211064530 16 343 0.0 2.0 0.00 0.00 0.00 89 1021.1
20181211063015 16 343 0.0 2.0 0.00 0.00 0.00 88 1020.9
20181211061511 16 343 0.0 1.0 0.00 0.00 0.00 88 1020.9
20181211060019 16 343 0.0 1.0 0.00 0.00 0.00 87 1021.0
20181211054513 17 343 0.0 0.0 0.00 0.00 0.00 86 1021.1
20181211053322 17 343 0.0 2.0 0.00 0.00 0.00 84 1021.1
20181211051624 17 343 0.0 2.0 0.00 0.00 0.00 84 1021.0
20181211050129 18 343 0.0 2.0 0.00 0.00 0.00 82 1021.2
20181211044732 18 343 0.0 3.0 0.00 0.00 0.00 82 1020.9
20181211043113 18 343 1.0 2.0 0.00 0.00 0.00 83 1021.0
20181211041712 18 343 1.0 2.0 0.00 0.00 0.00 82 1021.0
20181211040050 18 343 0.0 1.0 0.00 0.00 0.00 83 1021.2
20181211034612 19 343 0.0 0.0 0.00 0.00 0.00 82 1021.1
20181211033144 19 343 0.0 4.0 0.00 0.00 0.00 81 1021.0
20181211031655 19 343 1.0 3.0 0.00 0.00 0.00 80 1020.9
20181211030057 20 343 1.0 2.0 0.00 0.00 0.00 79 1021.0
20181211024559 20 343 1.0 3.0 0.00 0.00 0.00 80 1021.0
20181211023127 20 343 0.0 2.0 0.00 0.00 0.00 80 1021.0
20181211021545 20 343 2.0 5.0 0.00 0.00 0.00 78 1021.1
20181211020053 21 343 3.0 5.0 0.00 0.00 0.00 77 1021.0
20181211014635 21 343 2.0 5.0 0.00 0.00 0.00 77 1020.9
20181211013116 21 343 3.0 5.0 0.00 0.00 0.00 76 1020.9
20181211011537 21 343 2.0 6.0 0.00 0.00 0.00 76 1020.8
20181211010113 22 343 3.0 9.0 0.00 0.00 0.00 75 1021.0
20181211004537 22 343 3.0 8.0 0.00 0.00 0.00 74 1021.1
20181211003035 22 343 4.0 9.0 0.00 0.00 0.00 74 1021.2
20181211001522 22 343 4.0 9.0 0.00 0.00 0.00 74 1021.1
20181211000028 23 343 4.0 8.0 0.00 0.00 0.00 74 1021.0
20181210234521 23 343 2.0 6.0 0.00 0.00 0.00 73 1021.0
20181210233019 23 343 3.0 9.0 0.00 0.00 0.00 73 1021.0
20181210231527 24 343 3.0 8.0 0.00 0.00 0.00 72 1020.8
20181210230005 24 343 3.0 11.0 0.00 0.00 0.00 71 1020.7
20181210224820 25 343 3.0 8.0 0.00 0.00 0.00 71 1020.6
20181210223139 25 343 2.0 8.0 0.00 0.00 0.00 72 1020.6
20181210221724 25 343 3.0 9.0 0.00 0.00 0.00 71 1020.5
20181210220129 26 343 4.0 9.0 0.00 0.00 0.00 70 1020.5
20181210214658 27 343 3.0 8.0 0.00 0.00 0.00 69 1020.4
20181210213245 27 343 3.0 8.0 0.00 0.00 0.00 68 1020.2
20181210211609 28 343 2.0 8.0 0.00 0.00 0.00 68 1020.2
20181210210134 29 343 2.0 5.0 0.00 0.00 0.00 66 1020.1
20181210204648 29 343 4.0 9.0 0.00 0.00 0.00 64 1020.1
20181210203156 29 343 5.0 8.0 0.00 0.00 0.00 64 1020.1
20181210201610 29 343 5.0 9.0 0.00 0.00 0.00 65 1019.9
20181210200106 30 343 6.0 11.0 0.00 0.00 0.00 64 1019.8
20181210194610 30 343 4.0 10.0 0.00 0.00 0.00 65 1019.8
20181210193055 30 343 5.0 10.0 0.00 0.00 0.00 65 1019.8
20181210191556 30 343 3.0 9.0 0.00 0.00 0.00 65 1019.8
20181210190106 30 343 3.0 10.0 0.00 0.00 0.00 65 1019.7
20181210184619 30 343 2.0 6.0 0.00 0.00 0.00 65 1019.7
20181210183100 30 343 4.0 10.0 0.00 0.00 0.00 67 1019.8
20181210181600 29 343 3.0 10.0 0.00 0.00 0.00 67 1019.6
20181210180138 30 343 2.0 9.0 0.00 0.00 0.00 68 1019.8
20181210174604 29 343 7.0 13.0 0.00 0.00 0.00 68 1019.8
20181210173058 29 343 7.0 12.0 0.00 0.00 0.00 68 1019.8
20181210171603 28 343 5.0 11.0 0.00 0.00 0.00 71 1019.8
20181210170124 28 343 6.0 12.0 0.00 0.00 0.00 69 1019.8
20181210164618 28 343 7.0 13.0 0.00 0.00 0.00 70 1019.9
20181210163055 28 343 7.0 11.0 0.00 0.00 0.00 70 1020.1
20181210161611 28 343 6.0 11.0 0.00 0.00 0.00 71 1020.3
20181210160052 28 343 6.0 12.0 0.00 0.00 0.00 71 1020.3
20181210154546 29 343 8.0 15.0 0.00 0.00 0.00 71 1020.3
20181210153057 29 343 8.0 13.0 0.00 0.00 0.00 71 1020.5
20181210151642 30 343 10.0 14.0 0.00 0.00 0.00 70 1020.4
20181210150051 29 343 11.0 15.0 0.00 0.00 0.00 72 1020.3
20181210144542 29 343 4.0 11.0 0.00 0.00 0.00 73 1020.0
20181210143028 29 343 7.0 12.0 0.00 0.00 0.00 74 1019.9
20181210141545 29 343 4.0 12.0 0.00 0.00 0.00 75 1019.8
20181210140046 29 343 2.0 11.0 0.00 0.00 0.00 78 1019.6
20181210134518 29 343 3.0 10.0 0.00 0.00 0.00 78 1019.3
20181210133026 28 343 3.0 8.0 0.00 0.00 0.00 79 1019.2
20181210131502 28 343 5.0 10.0 0.00 0.00 0.00 79 1019.0